GLO1747 SBGO-SBBR
Flight info
| Callsign | GLO1747 |
|---|---|
| Flight time | 0h 23m |
| Altitude | 15000 |
| Route | LODUV Z15 PAJEM |
| Aircraft | B738/M-SDE2E3FGHIRWXY/LB1 |
Departure
| Time | 2026-05-08 21:49 |
|---|---|
| Airport | Santa Genoveva International Airport (SBGO) |
Arrival
| Time | 2026-05-08 22:12 |
|---|---|
| Airport | Presidente Juscelino Kubitschek International Airport (SBBR) |
| Time | Latitude | Longitude | Altitude | Speed | Heading |
|---|---|---|---|---|---|
| 2026-05-08 21:33 | -16.63007 | -49.21512 | 2461 ft | 0 kts | 57° |
| 2026-05-08 21:42 | -16.63019 | -49.21532 | 2467 ft | 6 kts | 57° |
| 2026-05-08 21:42 | -16.63035 | -49.21559 | 2461 ft | 2 kts | 69° |
| 2026-05-08 21:42 | -16.63037 | -49.21571 | 2464 ft | 2 kts | 115° |
| 2026-05-08 21:42 | -16.63030 | -49.21579 | 2465 ft | 2 kts | 147° |
| 2026-05-08 21:43 | -16.63028 | -49.21581 | 2465 ft | 0 kts | 148° |
| 2026-05-08 21:45 | -16.63043 | -49.21571 | 2463 ft | 6 kts | 147° |
| 2026-05-08 21:45 | -16.63093 | -49.21529 | 2463 ft | 12 kts | 138° |
| 2026-05-08 21:46 | -16.63156 | -49.21440 | 2463 ft | 18 kts | 122° |
| 2026-05-08 21:46 | -16.63228 | -49.21315 | 2464 ft | 20 kts | 120° |
| 2026-05-08 21:46 | -16.63298 | -49.21189 | 2467 ft | 20 kts | 120° |
| 2026-05-08 21:46 | -16.63367 | -49.21067 | 2465 ft | 19 kts | 126° |
| 2026-05-08 21:47 | -16.63483 | -49.21009 | 2462 ft | 19 kts | 165° |
| 2026-05-08 21:47 | -16.63603 | -49.21016 | 2463 ft | 17 kts | 210° |
| 2026-05-08 21:47 | -16.63681 | -49.21062 | 2463 ft | 7 kts | 207° |
| 2026-05-08 21:47 | -16.63725 | -49.21088 | 2464 ft | 7 kts | 213° |
| 2026-05-08 21:48 | -16.63753 | -49.21111 | 2465 ft | 2 kts | 246° |
| 2026-05-08 21:48 | -16.63740 | -49.21143 | 2462 ft | 10 kts | 301° |
| 2026-05-08 21:48 | -16.63612 | -49.21372 | 2465 ft | 71 kts | 299° |
| 2026-05-08 21:48 | -16.63243 | -49.22028 | 2448 ft | 136 kts | 300° |
| 2026-05-08 21:49 | -16.62678 | -49.23018 | 2626 ft | 171 kts | 300° |
| 2026-05-08 21:49 | -16.62095 | -49.24135 | 3278 ft | 183 kts | 297° |
| 2026-05-08 21:49 | -16.61492 | -49.25316 | 3888 ft | 193 kts | 302° |
| 2026-05-08 21:49 | -16.60741 | -49.26598 | 4146 ft | 221 kts | 302° |
| 2026-05-08 21:50 | -16.59894 | -49.28047 | 4336 ft | 246 kts | 301° |
| 2026-05-08 21:50 | -16.58972 | -49.29652 | 4591 ft | 267 kts | 301° |
| 2026-05-08 21:50 | -16.58009 | -49.31349 | 5286 ft | 273 kts | 301° |
| 2026-05-08 21:50 | -16.57042 | -49.33065 | 6145 ft | 275 kts | 301° |
| 2026-05-08 21:51 | -16.55890 | -49.34650 | 6928 ft | 277 kts | 322° |
| 2026-05-08 21:51 | -16.54164 | -49.35508 | 7588 ft | 279 kts | 348° |
| 2026-05-08 21:51 | -16.52248 | -49.35455 | 8016 ft | 278 kts | 17° |
| 2026-05-08 21:51 | -16.50538 | -49.34484 | 8695 ft | 286 kts | 41° |
| 2026-05-08 21:52 | -16.49340 | -49.32821 | 9446 ft | 292 kts | 64° |
| 2026-05-08 21:52 | -16.48753 | -49.30783 | 10205 ft | 297 kts | 78° |
| 2026-05-08 21:52 | -16.48428 | -49.28644 | 10929 ft | 301 kts | 81° |
| 2026-05-08 21:52 | -16.48131 | -49.26479 | 11660 ft | 303 kts | 80° |
| 2026-05-08 21:53 | -16.47806 | -49.24296 | 12395 ft | 306 kts | 79° |
| 2026-05-08 21:53 | -16.47456 | -49.22100 | 13125 ft | 309 kts | 79° |
| 2026-05-08 21:53 | -16.47092 | -49.19884 | 13852 ft | 312 kts | 78° |
| 2026-05-08 21:53 | -16.46629 | -49.17628 | 14188 ft | 328 kts | 75° |
| 2026-05-08 21:54 | -16.46037 | -49.15255 | 14324 ft | 349 kts | 73° |
| 2026-05-08 21:54 | -16.45402 | -49.12755 | 14559 ft | 364 kts | 74° |
| 2026-05-08 21:54 | -16.44978 | -49.11053 | 14849 ft | 367 kts | 74° |
| 2026-05-08 21:54 | -16.44136 | -49.07604 | 15042 ft | 368 kts | 75° |
| 2026-05-08 21:55 | -16.43722 | -49.05897 | 15051 ft | 366 kts | 75° |
| 2026-05-08 21:55 | -16.43104 | -49.03334 | 15061 ft | 365 kts | 75° |
| 2026-05-08 21:55 | -16.42482 | -49.00768 | 15078 ft | 365 kts | 75° |
| 2026-05-08 21:56 | -16.41239 | -48.95629 | 15091 ft | 369 kts | 75° |
| 2026-05-08 21:56 | -16.40600 | -48.92987 | 15103 ft | 384 kts | 75° |
| 2026-05-08 21:56 | -16.39935 | -48.90236 | 15107 ft | 399 kts | 75° |
| 2026-05-08 21:56 | -16.39250 | -48.87398 | 15098 ft | 406 kts | 75° |
| 2026-05-08 21:57 | -16.38561 | -48.84549 | 15080 ft | 404 kts | 75° |
| 2026-05-08 21:57 | -16.37841 | -48.81736 | 15069 ft | 400 kts | 70° |
| 2026-05-08 21:57 | -16.36557 | -48.79196 | 15080 ft | 395 kts | 54° |
| 2026-05-08 21:57 | -16.34995 | -48.76842 | 15069 ft | 396 kts | 54° |
| 2026-05-08 21:58 | -16.33444 | -48.74469 | 15006 ft | 397 kts | 55° |
| 2026-05-08 21:58 | -16.31905 | -48.72077 | 15002 ft | 399 kts | 56° |
| 2026-05-08 21:58 | -16.30370 | -48.69663 | 15004 ft | 400 kts | 56° |
| 2026-05-08 21:58 | -16.28839 | -48.67241 | 15007 ft | 401 kts | 56° |
| 2026-05-08 21:59 | -16.27302 | -48.64809 | 15002 ft | 402 kts | 56° |
| 2026-05-08 21:59 | -16.25787 | -48.62414 | 14988 ft | 389 kts | 56° |
| 2026-05-08 21:59 | -16.24366 | -48.60089 | 14984 ft | 374 kts | 61° |
| 2026-05-08 21:59 | -16.23483 | -48.57571 | 14605 ft | 371 kts | 75° |
| 2026-05-08 22:00 | -16.22894 | -48.54968 | 14183 ft | 368 kts | 76° |
| 2026-05-08 22:00 | -16.22327 | -48.52372 | 13731 ft | 367 kts | 76° |
| 2026-05-08 22:00 | -16.21755 | -48.49793 | 13244 ft | 364 kts | 75° |
| 2026-05-08 22:00 | -16.21181 | -48.47275 | 12832 ft | 360 kts | 75° |
| 2026-05-08 22:01 | -16.20595 | -48.44757 | 12407 ft | 357 kts | 75° |
| 2026-05-08 22:01 | -16.20007 | -48.42258 | 11966 ft | 354 kts | 75° |
| 2026-05-08 22:01 | -16.19420 | -48.39780 | 11540 ft | 352 kts | 75° |
| 2026-05-08 22:01 | -16.18836 | -48.37318 | 11119 ft | 349 kts | 75° |
| 2026-05-08 22:02 | -16.18256 | -48.34879 | 10716 ft | 346 kts | 75° |
| 2026-05-08 22:02 | -16.17677 | -48.32449 | 10300 ft | 344 kts | 75° |
| 2026-05-08 22:02 | -16.17105 | -48.30044 | 9985 ft | 340 kts | 75° |
| 2026-05-08 22:02 | -16.16556 | -48.27724 | 9970 ft | 319 kts | 75° |
| 2026-05-08 22:03 | -16.16044 | -48.25559 | 9938 ft | 298 kts | 74° |
| 2026-05-08 22:03 | -16.15273 | -48.23638 | 9611 ft | 287 kts | 52° |
| 2026-05-08 22:03 | -16.13794 | -48.22309 | 9300 ft | 276 kts | 30° |
| 2026-05-08 22:03 | -16.12059 | -48.21567 | 9052 ft | 264 kts | 13° |
| 2026-05-08 22:04 | -16.10313 | -48.21127 | 8879 ft | 253 kts | 12° |
| 2026-05-08 22:04 | -16.08611 | -48.20714 | 8734 ft | 250 kts | 12° |
| 2026-05-08 22:04 | -16.06918 | -48.20297 | 8592 ft | 250 kts | 12° |
| 2026-05-08 22:04 | -16.05225 | -48.19872 | 8459 ft | 250 kts | 13° |
| 2026-05-08 22:05 | -16.03555 | -48.19448 | 8300 ft | 245 kts | 13° |
| 2026-05-08 22:05 | -16.01916 | -48.19030 | 8151 ft | 240 kts | 13° |
| 2026-05-08 22:05 | -16.00317 | -48.18622 | 8014 ft | 234 kts | 13° |
| 2026-05-08 22:05 | -15.98742 | -48.18220 | 7886 ft | 232 kts | 12° |
| 2026-05-08 22:06 | -15.97163 | -48.17862 | 7764 ft | 233 kts | 11° |
| 2026-05-08 22:06 | -15.95572 | -48.17514 | 7564 ft | 237 kts | 11° |
| 2026-05-08 22:06 | -15.93948 | -48.17158 | 7383 ft | 239 kts | 12° |
| 2026-05-08 22:06 | -15.92319 | -48.16799 | 7228 ft | 239 kts | 12° |
| 2026-05-08 22:07 | -15.90717 | -48.16445 | 7106 ft | 230 kts | 12° |
| 2026-05-08 22:07 | -15.89209 | -48.16023 | 6911 ft | 221 kts | 28° |
| 2026-05-08 22:07 | -15.88212 | -48.14907 | 6783 ft | 211 kts | 70° |
| 2026-05-08 22:07 | -15.87894 | -48.13417 | 6722 ft | 213 kts | 77° |
| 2026-05-08 22:08 | -15.87639 | -48.11893 | 6565 ft | 214 kts | 81° |
| 2026-05-08 22:08 | -15.87490 | -48.10358 | 6443 ft | 213 kts | 84° |
| 2026-05-08 22:08 | -15.87388 | -48.08861 | 6335 ft | 201 kts | 85° |
| 2026-05-08 22:08 | -15.87299 | -48.07463 | 6167 ft | 194 kts | 84° |
| 2026-05-08 22:09 | -15.87209 | -48.06058 | 5905 ft | 190 kts | 84° |
| 2026-05-08 22:09 | -15.87122 | -48.04711 | 5684 ft | 184 kts | 84° |
| 2026-05-08 22:09 | -15.87038 | -48.03411 | 5467 ft | 176 kts | 84° |
| 2026-05-08 22:09 | -15.86957 | -48.02151 | 5251 ft | 174 kts | 84° |
| 2026-05-08 22:10 | -15.86879 | -48.00938 | 5035 ft | 164 kts | 84° |
| 2026-05-08 22:10 | -15.86807 | -47.99810 | 4860 ft | 156 kts | 83° |
| 2026-05-08 22:10 | -15.86735 | -47.98693 | 4633 ft | 154 kts | 84° |
| 2026-05-08 22:10 | -15.86664 | -47.97594 | 4434 ft | 152 kts | 83° |
| 2026-05-08 22:11 | -15.86594 | -47.96501 | 4246 ft | 152 kts | 84° |
| 2026-05-08 22:11 | -15.86494 | -47.95408 | 4029 ft | 152 kts | 83° |
| 2026-05-08 22:11 | -15.86493 | -47.94318 | 3837 ft | 151 kts | 92° |
| 2026-05-08 22:11 | -15.86394 | -47.93251 | 3613 ft | 146 kts | 83° |
| 2026-05-08 22:12 | -15.86320 | -47.92245 | 3469 ft | 134 kts | 87° |
| 2026-05-08 22:12 | -15.86275 | -47.91404 | 3463 ft | 95 kts | 87° |
| 2026-05-08 22:12 | -15.86241 | -47.90884 | 3476 ft | 41 kts | 91° |
| 2026-05-08 22:12 | -15.86333 | -47.90758 | 3481 ft | 21 kts | 130° |
| 2026-05-08 22:13 | -15.86422 | -47.90757 | 3483 ft | 17 kts | 266° |
| 2026-05-08 22:13 | -15.86429 | -47.90874 | 3479 ft | 16 kts | 266° |
| 2026-05-08 22:13 | -15.86439 | -47.90992 | 3472 ft | 17 kts | 265° |
| 2026-05-08 22:13 | -15.86445 | -47.91120 | 3469 ft | 18 kts | 267° |
| 2026-05-08 22:14 | -15.86452 | -47.91246 | 3468 ft | 17 kts | 268° |
| 2026-05-08 22:14 | -15.86460 | -47.91367 | 3466 ft | 17 kts | 264° |
| 2026-05-08 22:14 | -15.86468 | -47.91484 | 3464 ft | 16 kts | 267° |
| 2026-05-08 22:14 | -15.86479 | -47.91596 | 3464 ft | 15 kts | 266° |
| 2026-05-08 22:15 | -15.86483 | -47.91704 | 3466 ft | 15 kts | 266° |
| 2026-05-08 22:15 | -15.86504 | -47.91802 | 3467 ft | 14 kts | 219° |
| 2026-05-08 22:15 | -15.86596 | -47.91821 | 3470 ft | 13 kts | 212° |
| 2026-05-08 22:15 | -15.86626 | -47.91895 | 3469 ft | 8 kts | 211° |
| 2026-05-08 22:16 | -15.86680 | -47.91895 | 3471 ft | 8 kts | 181° |
| 2026-05-08 22:16 | -15.86691 | -47.91895 | 3471 ft | 1 kts | 172° |
| 2026-05-08 22:16 | -15.86702 | -47.91893 | 3471 ft | 3 kts | 173° |
| 2026-05-08 22:16 | -15.86712 | -47.91892 | 3469 ft | 0 kts | 174° |